Información del aeropuerto LEBB

Información de pista
Pista 10 Longitud 6562 ft Anchura 148 ft
Elevación 116 ft Umbral 0 ft Rumbo 97
Pista 28 Longitud 6562 ft Anchura 148 ft
Elevación 129 ft Umbral 0 ft Rumbo 277
Pista 12 Longitud 8530 ft Anchura 148 ft
Elevación 119 ft Umbral 0 ft Rumbo 117
Pista 30 Longitud 8530 ft Anchura 148 ft
Elevación 128 ft Umbral 1509 ft Rumbo 297
Frecuencias del aeropuerto
Tipo APP Nombre APP Frecuencia 120.7 MHZ
Tipo ATIS Nombre ATIS Frecuencia 118.825 MHZ
Tipo GND Nombre GND Frecuencia 121.7 MHZ
Tipo TWR Nombre TWR Frecuencia 118.5 MHZ
Radioayudas del aeropuerto
Tipo VOR-DME Nombre Bilbao Frecuencia 115900 KHZ
Información meteorológica del aeropuerto y NOTAM
ADDS - METARS form results

(0822 UTC 19 April 2021)
Data provider http://aviationweather.gov/metar/data/
 
METAR text: LEBB 190800Z 12005KT 080V160 CAVOK 08/04 Q1019 NOSIG
Conditions at: LEBB (BILBAO/SONDICA , ES) observed 0800 UTC 19 April 2021
Temperature: 8.0°C (46°F)
Dewpoint: 4.0°C (39°F) [RH = 76%]
Pressure (altimeter): 30.09 inches Hg (1019.0 mb)
Winds: from the ESE (120 degrees) at 6 MPH (5 knots; 2.6 m/s)
Visibility: 6 or more miles (10+ km)
Ceiling: ceiling and visibility are OK
Clouds: unknown
Weather: no significant weather observed at this time

METAR text: LEBB 190730Z 09004KT 070V130 CAVOK 07/04 Q1019 NOSIG
Conditions at: LEBB (BILBAO/SONDICA , ES) observed 0730 UTC 19 April 2021
Temperature: 7.0°C (45°F)
Dewpoint: 4.0°C (39°F) [RH = 81%]
Pressure (altimeter): 30.09 inches Hg (1019.0 mb)
Winds: from the E (90 degrees) at 5 MPH (4 knots; 2.1 m/s)
Visibility: 6 or more miles (10+ km)
Ceiling: ceiling and visibility are OK
Clouds: unknown
Weather: no significant weather observed at this time

Forecast for: LEBB (BILBAO/SONDICA , ES)
Text: TAF LEBB 190500Z 1906/2006 VRB04KT 9999 FEW060 TX20/1913Z TN03/1906Z
Forecast period: 0600 UTC 19 April 2021 to 0600 UTC 20 April 2021
Forecast type: FROM: standard forecast or significant change
Winds: variable direction winds at 5 MPH (4 knots; 2.1 m/s)
Visibility: 6 or more miles (10+ km)
Ceiling: at least 12,000 feet AGL
Clouds: few clouds at 6000 feet AGL
Weather: no significant weather forecast for this period
Text: PROB30
Forecast period: 1200 to 1800 UTC 19 April 2021
Forecast type: TEMPORARY: The following changes expected for less than half the time period
Winds: from the NW (320 degrees) at 9 MPH (8 knots; 4.1 m/s)
Visibility: missing
Ceiling: unknown
Clouds: missing
Weather: no significant weather forecast for this period
Text: TEMPO 1912/1918 32008KT
Forecast period: 2000 to 2200 UTC 19 April 2021
Forecast type: TEMPORARY: The following changes expected for less than half the time period
Visibility: missing
Ceiling: unknown
Clouds: missing
Weather: RA  (moderate rain)